sensor_id;sensor_type;location;lat;lon;timestamp;P1;durP1;ratioP1;P2;durP2;ratioP2
73557;SDS011;61829;53.286;10.434;2022-08-04T00:08:28;7.05;;;2.83;;
73557;SDS011;61829;53.286;10.434;2022-08-04T00:11:06;8.88;;;3.15;;
73557;SDS011;61829;53.286;10.434;2022-08-04T00:13:36;7.28;;;2.90;;
73557;SDS011;61829;53.286;10.434;2022-08-04T00:16:07;6.93;;;2.75;;
73557;SDS011;61829;53.286;10.434;2022-08-04T00:18:44;11.80;;;3.03;;
73557;SDS011;61829;53.286;10.434;2022-08-04T00:21:17;6.47;;;3.10;;
73557;SDS011;61829;53.286;10.434;2022-08-04T00:23:47;9.43;;;3.05;;
73557;SDS011;61829;53.286;10.434;2022-08-04T00:26:15;10.45;;;3.58;;
73557;SDS011;61829;53.286;10.434;2022-08-04T00:28:42;9.23;;;3.25;;
73557;SDS011;61829;53.286;10.434;2022-08-04T00:33:39;8.73;;;3.03;;
73557;SDS011;61829;53.286;10.434;2022-08-04T00:36:08;10.82;;;3.20;;
73557;SDS011;61829;53.286;10.434;2022-08-04T00:38:36;8.07;;;3.10;;
73557;SDS011;61829;53.286;10.434;2022-08-04T00:41:08;9.45;;;3.75;;
73557;SDS011;61829;53.286;10.434;2022-08-04T00:52:53;8.15;;;3.55;;
73557;SDS011;61829;53.286;10.434;2022-08-04T01:09:33;6.63;;;3.47;;
73557;SDS011;61829;53.286;10.434;2022-08-04T01:17:36;8.25;;;3.15;;
73557;SDS011;61829;53.286;10.434;2022-08-04T01:20:23;7.07;;;3.50;;
73557;SDS011;61829;53.286;10.434;2022-08-04T01:34:10;10.30;;;3.10;;
73557;SDS011;61829;53.286;10.434;2022-08-04T01:42:05;8.00;;;3.08;;
73557;SDS011;61829;53.286;10.434;2022-08-04T01:44:33;9.60;;;3.33;;
73557;SDS011;61829;53.286;10.434;2022-08-04T01:50:10;10.40;;;3.17;;
73557;SDS011;61829;53.286;10.434;2022-08-04T01:52:39;8.13;;;2.92;;
73557;SDS011;61829;53.286;10.434;2022-08-04T01:55:08;8.80;;;3.00;;
73557;SDS011;61829;53.286;10.434;2022-08-04T01:57:40;10.02;;;3.60;;
73557;SDS011;61829;53.286;10.434;2022-08-04T02:00:11;8.65;;;3.67;;
73557;SDS011;61829;53.286;10.434;2022-08-04T02:02:43;8.13;;;3.70;;
73557;SDS011;61829;53.286;10.434;2022-08-04T02:05:11;11.82;;;3.42;;
73557;SDS011;61829;53.286;10.434;2022-08-04T02:16:03;8.63;;;3.35;;
73557;SDS011;61829;53.286;10.434;2022-08-04T02:21:24;9.05;;;3.58;;
73557;SDS011;61829;53.286;10.434;2022-08-04T02:23:59;8.18;;;3.38;;
73557;SDS011;61829;53.286;10.434;2022-08-04T02:26:30;8.07;;;3.38;;
73557;SDS011;61829;53.286;10.434;2022-08-04T02:29:00;7.30;;;3.63;;
73557;SDS011;61829;53.286;10.434;2022-08-04T02:36:37;8.38;;;3.38;;
73557;SDS011;61829;53.286;10.434;2022-08-04T02:39:09;8.07;;;3.13;;
73557;SDS011;61829;53.286;10.434;2022-08-04T02:41:36;7.53;;;3.25;;
73557;SDS011;61829;53.286;10.434;2022-08-04T02:44:08;6.63;;;3.20;;
73557;SDS011;61829;53.286;10.434;2022-08-04T02:46:36;8.35;;;3.50;;
73557;SDS011;61829;53.286;10.434;2022-08-04T02:49:07;7.97;;;3.33;;
73557;SDS011;61829;53.286;10.434;2022-08-04T02:51:37;7.57;;;3.53;;
73557;SDS011;61829;53.286;10.434;2022-08-04T02:54:07;10.70;;;4.18;;
73557;SDS011;61829;53.286;10.434;2022-08-04T02:56:34;5.30;;;2.92;;
73557;SDS011;61829;53.286;10.434;2022-08-04T02:59:03;7.50;;;3.10;;
73557;SDS011;61829;53.286;10.434;2022-08-04T03:01:34;8.90;;;3.35;;
73557;SDS011;61829;53.286;10.434;2022-08-04T03:13:37;7.65;;;3.22;;
73557;SDS011;61829;53.286;10.434;2022-08-04T03:30:48;5.40;;;3.22;;
73557;SDS011;61829;53.286;10.434;2022-08-04T03:36:34;10.45;;;3.80;;
73557;SDS011;61829;53.286;10.434;2022-08-04T03:42:07;10.50;;;3.47;;
73557;SDS011;61829;53.286;10.434;2022-08-04T03:52:48;6.25;;;3.17;;
73557;SDS011;61829;53.286;10.434;2022-08-04T04:15:38;6.85;;;3.40;;
73557;SDS011;61829;53.286;10.434;2022-08-04T04:30:00;10.15;;;3.90;;
73557;SDS011;61829;53.286;10.434;2022-08-04T04:46:47;6.88;;;3.47;;
73557;SDS011;61829;53.286;10.434;2022-08-04T04:52:47;7.93;;;3.85;;
73557;SDS011;61829;53.286;10.434;2022-08-04T04:55:20;10.05;;;5.28;;
73557;SDS011;61829;53.286;10.434;2022-08-04T05:00:17;11.10;;;3.80;;
73557;SDS011;61829;53.286;10.434;2022-08-04T05:14:22;8.40;;;3.45;;
73557;SDS011;61829;53.286;10.434;2022-08-04T05:17:02;10.10;;;3.42;;
73557;SDS011;61829;53.286;10.434;2022-08-04T05:22:47;8.13;;;3.42;;
73557;SDS011;61829;53.286;10.434;2022-08-04T05:25:26;5.53;;;2.97;;
73557;SDS011;61829;53.286;10.434;2022-08-04T05:28:07;6.60;;;3.25;;
73557;SDS011;61829;53.286;10.434;2022-08-04T05:30:37;8.18;;;3.63;;
73557;SDS011;61829;53.286;10.434;2022-08-04T05:33:14;7.55;;;2.53;;
73557;SDS011;61829;53.286;10.434;2022-08-04T05:35:45;7.80;;;3.13;;
73557;SDS011;61829;53.286;10.434;2022-08-04T05:38:17;7.68;;;3.03;;
73557;SDS011;61829;53.286;10.434;2022-08-04T05:40:45;10.20;;;3.17;;
73557;SDS011;61829;53.286;10.434;2022-08-04T05:43:13;5.90;;;2.55;;
73557;SDS011;61829;53.286;10.434;2022-08-04T05:45:41;6.63;;;2.92;;
73557;SDS011;61829;53.286;10.434;2022-08-04T05:48:08;9.95;;;2.65;;
73557;SDS011;61829;53.286;10.434;2022-08-04T05:50:35;7.68;;;2.83;;
73557;SDS011;61829;53.286;10.434;2022-08-04T05:53:03;11.13;;;3.08;;
73557;SDS011;61829;53.286;10.434;2022-08-04T05:55:30;8.80;;;3.05;;
73557;SDS011;61829;53.286;10.434;2022-08-04T05:57:58;4.70;;;2.40;;
73557;SDS011;61829;53.286;10.434;2022-08-04T06:00:26;6.55;;;2.58;;
73557;SDS011;61829;53.286;10.434;2022-08-04T06:02:53;7.82;;;2.60;;
73557;SDS011;61829;53.286;10.434;2022-08-04T06:05:22;5.90;;;2.58;;
73557;SDS011;61829;53.286;10.434;2022-08-04T06:07:49;5.03;;;2.53;;
73557;SDS011;61829;53.286;10.434;2022-08-04T06:10:15;9.77;;;2.67;;
73557;SDS011;61829;53.286;10.434;2022-08-04T06:12:45;10.48;;;2.47;;
73557;SDS011;61829;53.286;10.434;2022-08-04T06:15:16;11.63;;;3.22;;
73557;SDS011;61829;53.286;10.434;2022-08-04T06:17:55;5.95;;;2.30;;
73557;SDS011;61829;53.286;10.434;2022-08-04T06:20:30;6.63;;;2.47;;
73557;SDS011;61829;53.286;10.434;2022-08-04T06:23:10;12.48;;;2.60;;
73557;SDS011;61829;53.286;10.434;2022-08-04T06:25:49;6.22;;;2.50;;
73557;SDS011;61829;53.286;10.434;2022-08-04T06:28:18;9.30;;;2.40;;
73557;SDS011;61829;53.286;10.434;2022-08-04T06:30:47;6.72;;;2.47;;
73557;SDS011;61829;53.286;10.434;2022-08-04T06:33:15;6.25;;;2.50;;
73557;SDS011;61829;53.286;10.434;2022-08-04T06:36:12;9.38;;;2.88;;
73557;SDS011;61829;53.286;10.434;2022-08-04T06:38:38;9.73;;;2.50;;
73557;SDS011;61829;53.286;10.434;2022-08-04T06:41:06;8.02;;;2.25;;
73557;SDS011;61829;53.286;10.434;2022-08-04T06:43:35;10.65;;;2.55;;
73557;SDS011;61829;53.286;10.434;2022-08-04T06:46:03;7.40;;;2.55;;
73557;SDS011;61829;53.286;10.434;2022-08-04T06:48:30;4.82;;;2.30;;
73557;SDS011;61829;53.286;10.434;2022-08-04T06:50:58;7.13;;;2.70;;
73557;SDS011;61829;53.286;10.434;2022-08-04T06:53:26;5.55;;;2.40;;
73557;SDS011;61829;53.286;10.434;2022-08-04T06:55:52;6.00;;;2.40;;
73557;SDS011;61829;53.286;10.434;2022-08-04T06:58:21;4.70;;;2.65;;
73557;SDS011;61829;53.286;10.434;2022-08-04T07:00:49;6.70;;;2.53;;
73557;SDS011;61829;53.286;10.434;2022-08-04T07:03:17;7.05;;;2.40;;
73557;SDS011;61829;53.286;10.434;2022-08-04T07:05:45;8.93;;;2.60;;
73557;SDS011;61829;53.286;10.434;2022-08-04T07:08:12;9.93;;;2.47;;
73557;SDS011;61829;53.286;10.434;2022-08-04T07:10:39;5.70;;;2.13;;
73557;SDS011;61829;53.286;10.434;2022-08-04T07:13:05;4.75;;;2.10;;
73557;SDS011;61829;53.286;10.434;2022-08-04T07:15:33;7.90;;;2.13;;
73557;SDS011;61829;53.286;10.434;2022-08-04T07:18:01;8.07;;;2.30;;
73557;SDS011;61829;53.286;10.434;2022-08-04T07:20:29;5.82;;;2.40;;
73557;SDS011;61829;53.286;10.434;2022-08-04T07:22:56;5.38;;;2.38;;
73557;SDS011;61829;53.286;10.434;2022-08-04T07:25:24;8.93;;;2.40;;
73557;SDS011;61829;53.286;10.434;2022-08-04T07:27:51;5.72;;;2.22;;
73557;SDS011;61829;53.286;10.434;2022-08-04T07:30:17;4.75;;;2.08;;
73557;SDS011;61829;53.286;10.434;2022-08-04T07:32:44;8.27;;;2.42;;
73557;SDS011;61829;53.286;10.434;2022-08-04T07:37:37;10.00;;;2.58;;
73557;SDS011;61829;53.286;10.434;2022-08-04T07:40:04;6.15;;;2.35;;
73557;SDS011;61829;53.286;10.434;2022-08-04T07:42:31;7.90;;;2.03;;
73557;SDS011;61829;53.286;10.434;2022-08-04T07:44:57;9.13;;;2.40;;
73557;SDS011;61829;53.286;10.434;2022-08-04T07:47:23;9.30;;;2.30;;
73557;SDS011;61829;53.286;10.434;2022-08-04T07:49:52;8.20;;;2.58;;
73557;SDS011;61829;53.286;10.434;2022-08-04T07:52:19;8.35;;;2.60;;
73557;SDS011;61829;53.286;10.434;2022-08-04T07:57:11;6.55;;;2.10;;
73557;SDS011;61829;53.286;10.434;2022-08-04T07:59:37;9.10;;;2.50;;
73557;SDS011;61829;53.286;10.434;2022-08-04T08:02:03;5.35;;;2.38;;
73557;SDS011;61829;53.286;10.434;2022-08-04T08:04:30;9.10;;;2.35;;
73557;SDS011;61829;53.286;10.434;2022-08-04T08:06:56;4.35;;;2.30;;
73557;SDS011;61829;53.286;10.434;2022-08-04T08:09:23;7.03;;;2.40;;
73557;SDS011;61829;53.286;10.434;2022-08-04T08:11:50;8.32;;;2.60;;
73557;SDS011;61829;53.286;10.434;2022-08-04T08:14:18;6.38;;;2.40;;
73557;SDS011;61829;53.286;10.434;2022-08-04T08:16:44;7.10;;;2.30;;
73557;SDS011;61829;53.286;10.434;2022-08-04T08:19:12;8.02;;;2.40;;
73557;SDS011;61829;53.286;10.434;2022-08-04T08:21:40;6.13;;;2.13;;
73557;SDS011;61829;53.286;10.434;2022-08-04T08:24:09;6.70;;;2.30;;
73557;SDS011;61829;53.286;10.434;2022-08-04T08:26:36;4.65;;;2.30;;
73557;SDS011;61829;53.286;10.434;2022-08-04T08:29:03;6.25;;;2.33;;
73557;SDS011;61829;53.286;10.434;2022-08-04T08:31:29;5.93;;;2.22;;
73557;SDS011;61829;53.286;10.434;2022-08-04T08:33:56;4.28;;;2.03;;
73557;SDS011;61829;53.286;10.434;2022-08-04T08:36:38;6.07;;;2.40;;
73557;SDS011;61829;53.286;10.434;2022-08-04T08:42:06;4.60;;;2.30;;
73557;SDS011;61829;53.286;10.434;2022-08-04T08:47:38;4.68;;;2.20;;
73557;SDS011;61829;53.286;10.434;2022-08-04T09:11:57;6.78;;;2.42;;
73557;SDS011;61829;53.286;10.434;2022-08-04T09:14:40;3.53;;;2.13;;
73557;SDS011;61829;53.286;10.434;2022-08-04T09:17:22;4.40;;;2.10;;
73557;SDS011;61829;53.286;10.434;2022-08-04T09:22:50;8.82;;;2.20;;
73557;SDS011;61829;53.286;10.434;2022-08-04T09:30:20;5.10;;;2.50;;
73557;SDS011;61829;53.286;10.434;2022-08-04T09:38:50;4.05;;;1.80;;
73557;SDS011;61829;53.286;10.434;2022-08-04T09:46:55;4.78;;;2.10;;
73557;SDS011;61829;53.286;10.434;2022-08-04T09:49:28;7.85;;;2.13;;
73557;SDS011;61829;53.286;10.434;2022-08-04T09:58:06;4.95;;;2.17;;
73557;SDS011;61829;53.286;10.434;2022-08-04T10:00:43;4.13;;;2.40;;
73557;SDS011;61829;53.286;10.434;2022-08-04T10:03:13;3.53;;;2.45;;
73557;SDS011;61829;53.286;10.434;2022-08-04T10:22:35;4.80;;;2.35;;
73557;SDS011;61829;53.286;10.434;2022-08-04T10:27:56;7.75;;;2.40;;
73557;SDS011;61829;53.286;10.434;2022-08-04T10:30:25;3.63;;;2.50;;
73557;SDS011;61829;53.286;10.434;2022-08-04T10:33:11;6.55;;;2.38;;
73557;SDS011;61829;53.286;10.434;2022-08-04T10:35:49;4.10;;;2.20;;
73557;SDS011;61829;53.286;10.434;2022-08-04T10:40:59;5.13;;;2.53;;
73557;SDS011;61829;53.286;10.434;2022-08-04T10:46:04;7.50;;;2.30;;
73557;SDS011;61829;53.286;10.434;2022-08-04T10:48:40;3.90;;;2.30;;
73557;SDS011;61829;53.286;10.434;2022-08-04T10:51:20;6.03;;;2.60;;
73557;SDS011;61829;53.286;10.434;2022-08-04T10:53:55;5.57;;;2.20;;
73557;SDS011;61829;53.286;10.434;2022-08-04T10:56:31;7.72;;;2.53;;
73557;SDS011;61829;53.286;10.434;2022-08-04T10:59:03;3.13;;;2.22;;
73557;SDS011;61829;53.286;10.434;2022-08-04T11:01:38;3.67;;;2.40;;
73557;SDS011;61829;53.286;10.434;2022-08-04T11:06:57;4.15;;;2.20;;
73557;SDS011;61829;53.286;10.434;2022-08-04T11:09:25;5.32;;;2.20;;
73557;SDS011;61829;53.286;10.434;2022-08-04T11:11:56;5.88;;;2.58;;
73557;SDS011;61829;53.286;10.434;2022-08-04T11:15:15;6.90;;;2.20;;
73557;SDS011;61829;53.286;10.434;2022-08-04T11:17:31;5.20;;;2.10;;
73557;SDS011;61829;53.286;10.434;2022-08-04T11:23:02;7.63;;;2.47;;
73557;SDS011;61829;53.286;10.434;2022-08-04T11:25:40;4.05;;;2.08;;
73557;SDS011;61829;53.286;10.434;2022-08-04T11:30:51;3.15;;;2.10;;
73557;SDS011;61829;53.286;10.434;2022-08-04T11:33:26;3.78;;;2.20;;
73557;SDS011;61829;53.286;10.434;2022-08-04T11:47:10;3.15;;;2.00;;
73557;SDS011;61829;53.286;10.434;2022-08-04T11:49:47;6.63;;;1.80;;
73557;SDS011;61829;53.286;10.434;2022-08-04T11:52:19;2.63;;;1.80;;
73557;SDS011;61829;53.286;10.434;2022-08-04T11:54:47;3.22;;;1.90;;
73557;SDS011;61829;53.286;10.434;2022-08-04T11:57:14;6.32;;;1.98;;
73557;SDS011;61829;53.286;10.434;2022-08-04T11:59:40;3.28;;;1.90;;
73557;SDS011;61829;53.286;10.434;2022-08-04T12:05:19;3.35;;;1.90;;
73557;SDS011;61829;53.286;10.434;2022-08-04T12:10:57;2.90;;;1.80;;
73557;SDS011;61829;53.286;10.434;2022-08-04T12:14:48;5.07;;;2.15;;
73557;SDS011;61829;53.286;10.434;2022-08-04T12:17:01;2.95;;;1.83;;
73557;SDS011;61829;53.286;10.434;2022-08-04T12:22:22;3.53;;;1.90;;
73557;SDS011;61829;53.286;10.434;2022-08-04T12:25:02;5.18;;;1.95;;
73557;SDS011;61829;53.286;10.434;2022-08-04T12:30:15;4.07;;;1.83;;
73557;SDS011;61829;53.286;10.434;2022-08-04T12:35:20;4.50;;;1.80;;
73557;SDS011;61829;53.286;10.434;2022-08-04T12:38:05;5.05;;;1.80;;
73557;SDS011;61829;53.286;10.434;2022-08-04T12:45:48;6.03;;;1.90;;
73557;SDS011;61829;53.286;10.434;2022-08-04T12:48:17;9.00;;;2.08;;
73557;SDS011;61829;53.286;10.434;2022-08-04T12:50:50;2.33;;;1.80;;
73557;SDS011;61829;53.286;10.434;2022-08-04T12:53:19;2.90;;;1.67;;
73557;SDS011;61829;53.286;10.434;2022-08-04T12:55:51;4.03;;;1.90;;
73557;SDS011;61829;53.286;10.434;2022-08-04T12:58:22;6.80;;;2.30;;
73557;SDS011;61829;53.286;10.434;2022-08-04T13:00:52;5.38;;;2.05;;
73557;SDS011;61829;53.286;10.434;2022-08-04T13:03:21;4.10;;;2.03;;
73557;SDS011;61829;53.286;10.434;2022-08-04T13:05:52;2.63;;;1.70;;
73557;SDS011;61829;53.286;10.434;2022-08-04T13:08:23;3.20;;;2.03;;
73557;SDS011;61829;53.286;10.434;2022-08-04T13:10:51;3.08;;;1.92;;
73557;SDS011;61829;53.286;10.434;2022-08-04T13:15:57;2.55;;;1.80;;
73557;SDS011;61829;53.286;10.434;2022-08-04T13:18:33;2.70;;;1.90;;
73557;SDS011;61829;53.286;10.434;2022-08-04T13:21:09;3.22;;;1.70;;
73557;SDS011;61829;53.286;10.434;2022-08-04T13:23:40;3.80;;;1.90;;
73557;SDS011;61829;53.286;10.434;2022-08-04T13:26:07;3.33;;;2.00;;
73557;SDS011;61829;53.286;10.434;2022-08-04T13:28:34;2.60;;;1.80;;
73557;SDS011;61829;53.286;10.434;2022-08-04T13:31:06;3.30;;;1.80;;
73557;SDS011;61829;53.286;10.434;2022-08-04T13:33:37;4.13;;;1.90;;
73557;SDS011;61829;53.286;10.434;2022-08-04T13:36:06;2.75;;;1.80;;
73557;SDS011;61829;53.286;10.434;2022-08-04T13:38:38;3.92;;;1.67;;
73557;SDS011;61829;53.286;10.434;2022-08-04T13:41:11;2.53;;;2.00;;
73557;SDS011;61829;53.286;10.434;2022-08-04T13:46:16;5.82;;;2.10;;
73557;SDS011;61829;53.286;10.434;2022-08-04T13:48:46;2.85;;;1.80;;
73557;SDS011;61829;53.286;10.434;2022-08-04T13:51:14;5.50;;;2.30;;
73557;SDS011;61829;53.286;10.434;2022-08-04T13:53:43;3.80;;;2.15;;
73557;SDS011;61829;53.286;10.434;2022-08-04T14:03:51;2.95;;;2.28;;
73557;SDS011;61829;53.286;10.434;2022-08-04T14:06:31;5.10;;;2.60;;
73557;SDS011;61829;53.286;10.434;2022-08-04T14:09:09;3.70;;;2.40;;
73557;SDS011;61829;53.286;10.434;2022-08-04T14:11:41;4.70;;;2.20;;
73557;SDS011;61829;53.286;10.434;2022-08-04T14:14:15;6.60;;;2.40;;
73557;SDS011;61829;53.286;10.434;2022-08-04T14:19:21;8.55;;;2.20;;
73557;SDS011;61829;53.286;10.434;2022-08-04T14:21:49;4.05;;;2.22;;
73557;SDS011;61829;53.286;10.434;2022-08-04T14:24:22;10.32;;;2.53;;
73557;SDS011;61829;53.286;10.434;2022-08-04T14:26:58;4.10;;;2.00;;
73557;SDS011;61829;53.286;10.434;2022-08-04T14:29:25;2.50;;;2.00;;
73557;SDS011;61829;53.286;10.434;2022-08-04T14:32:05;2.92;;;2.00;;
73557;SDS011;61829;53.286;10.434;2022-08-04T14:34:37;5.47;;;2.10;;
73557;SDS011;61829;53.286;10.434;2022-08-04T14:37:07;4.93;;;2.10;;
73557;SDS011;61829;53.286;10.434;2022-08-04T14:39:36;6.25;;;1.90;;
73557;SDS011;61829;53.286;10.434;2022-08-04T14:42:05;7.30;;;2.03;;
73557;SDS011;61829;53.286;10.434;2022-08-04T14:44:51;3.33;;;1.90;;
73557;SDS011;61829;53.286;10.434;2022-08-04T14:52:32;4.43;;;2.25;;
73557;SDS011;61829;53.286;10.434;2022-08-04T14:55:13;4.82;;;1.95;;
73557;SDS011;61829;53.286;10.434;2022-08-04T14:57:48;3.55;;;2.10;;
73557;SDS011;61829;53.286;10.434;2022-08-04T15:00:25;3.67;;;2.25;;
73557;SDS011;61829;53.286;10.434;2022-08-04T15:02:56;5.85;;;2.00;;
73557;SDS011;61829;53.286;10.434;2022-08-04T15:05:28;4.40;;;2.35;;
73557;SDS011;61829;53.286;10.434;2022-08-04T15:07:56;3.78;;;1.98;;
73557;SDS011;61829;53.286;10.434;2022-08-04T15:10:26;4.82;;;2.00;;
73557;SDS011;61829;53.286;10.434;2022-08-04T15:12:53;25.95;;;3.33;;
73557;SDS011;61829;53.286;10.434;2022-08-04T15:15:20;3.78;;;2.10;;
73557;SDS011;61829;53.286;10.434;2022-08-04T15:17:47;4.07;;;2.17;;
73557;SDS011;61829;53.286;10.434;2022-08-04T15:20:14;2.90;;;2.03;;
73557;SDS011;61829;53.286;10.434;2022-08-04T15:22:42;2.78;;;2.13;;
73557;SDS011;61829;53.286;10.434;2022-08-04T15:25:08;2.90;;;1.95;;
73557;SDS011;61829;53.286;10.434;2022-08-04T15:27:35;3.15;;;1.92;;
73557;SDS011;61829;53.286;10.434;2022-08-04T15:30:05;3.55;;;2.00;;
73557;SDS011;61829;53.286;10.434;2022-08-04T15:32:37;3.80;;;1.92;;
73557;SDS011;61829;53.286;10.434;2022-08-04T15:35:10;3.40;;;2.10;;
73557;SDS011;61829;53.286;10.434;2022-08-04T15:40:29;3.45;;;1.90;;
73557;SDS011;61829;53.286;10.434;2022-08-04T15:43:37;4.53;;;1.90;;
73557;SDS011;61829;53.286;10.434;2022-08-04T15:46:10;2.60;;;1.70;;
73557;SDS011;61829;53.286;10.434;2022-08-04T15:48:36;5.60;;;1.95;;
73557;SDS011;61829;53.286;10.434;2022-08-04T15:51:04;6.30;;;2.00;;
73557;SDS011;61829;53.286;10.434;2022-08-04T15:58:50;19.85;;;3.35;;
73557;SDS011;61829;53.286;10.434;2022-08-04T16:01:17;14.85;;;3.60;;
73557;SDS011;61829;53.286;10.434;2022-08-04T16:03:47;15.82;;;3.67;;
73557;SDS011;61829;53.286;10.434;2022-08-04T16:18:52;18.75;;;3.13;;
73557;SDS011;61829;53.286;10.434;2022-08-04T16:21:23;12.82;;;2.70;;
73557;SDS011;61829;53.286;10.434;2022-08-04T16:29:54;4.13;;;1.70;;
73557;SDS011;61829;53.286;10.434;2022-08-04T16:37:13;6.97;;;2.00;;
73557;SDS011;61829;53.286;10.434;2022-08-04T16:39:40;6.05;;;1.77;;
73557;SDS011;61829;53.286;10.434;2022-08-04T16:45:11;3.60;;;1.50;;
73557;SDS011;61829;53.286;10.434;2022-08-04T16:50:13;4.32;;;1.75;;
73557;SDS011;61829;53.286;10.434;2022-08-04T16:52:43;3.78;;;1.63;;
73557;SDS011;61829;53.286;10.434;2022-08-04T16:55:11;3.78;;;1.70;;
73557;SDS011;61829;53.286;10.434;2022-08-04T16:57:40;2.03;;;1.52;;
73557;SDS011;61829;53.286;10.434;2022-08-04T17:00:06;2.75;;;1.40;;
73557;SDS011;61829;53.286;10.434;2022-08-04T17:02:33;3.75;;;1.75;;
73557;SDS011;61829;53.286;10.434;2022-08-04T17:05:00;4.20;;;1.63;;
73557;SDS011;61829;53.286;10.434;2022-08-04T17:07:26;4.03;;;1.52;;
73557;SDS011;61829;53.286;10.434;2022-08-04T17:09:52;4.63;;;1.80;;
73557;SDS011;61829;53.286;10.434;2022-08-04T17:12:26;4.00;;;1.67;;
73557;SDS011;61829;53.286;10.434;2022-08-04T17:14:53;2.53;;;1.35;;
73557;SDS011;61829;53.286;10.434;2022-08-04T17:17:22;3.60;;;1.70;;
73557;SDS011;61829;53.286;10.434;2022-08-04T17:19:51;6.65;;;1.77;;
73557;SDS011;61829;53.286;10.434;2022-08-04T17:22:20;3.88;;;1.95;;
73557;SDS011;61829;53.286;10.434;2022-08-04T17:24:46;4.88;;;1.60;;
73557;SDS011;61829;53.286;10.434;2022-08-04T17:27:13;4.28;;;1.92;;
73557;SDS011;61829;53.286;10.434;2022-08-04T17:29:39;3.75;;;2.20;;
73557;SDS011;61829;53.286;10.434;2022-08-04T17:32:06;5.47;;;2.17;;
73557;SDS011;61829;53.286;10.434;2022-08-04T17:34:38;5.07;;;2.33;;
73557;SDS011;61829;53.286;10.434;2022-08-04T17:37:04;6.32;;;2.30;;
73557;SDS011;61829;53.286;10.434;2022-08-04T17:39:30;7.22;;;2.42;;
73557;SDS011;61829;53.286;10.434;2022-08-04T17:41:58;6.25;;;2.00;;
73557;SDS011;61829;53.286;10.434;2022-08-04T17:44:37;6.68;;;2.28;;
73557;SDS011;61829;53.286;10.434;2022-08-04T17:47:07;7.35;;;2.13;;
73557;SDS011;61829;53.286;10.434;2022-08-04T17:49:41;7.00;;;2.70;;
73557;SDS011;61829;53.286;10.434;2022-08-04T17:52:07;7.40;;;2.20;;
73557;SDS011;61829;53.286;10.434;2022-08-04T17:54:45;6.13;;;2.20;;
73557;SDS011;61829;53.286;10.434;2022-08-04T17:57:16;5.80;;;2.30;;
73557;SDS011;61829;53.286;10.434;2022-08-04T17:59:44;5.65;;;2.28;;
73557;SDS011;61829;53.286;10.434;2022-08-04T18:02:13;6.30;;;2.45;;
73557;SDS011;61829;53.286;10.434;2022-08-04T18:04:50;8.82;;;2.70;;
73557;SDS011;61829;53.286;10.434;2022-08-04T18:07:50;4.75;;;2.10;;
73557;SDS011;61829;53.286;10.434;2022-08-04T18:10:09;6.90;;;2.30;;
73557;SDS011;61829;53.286;10.434;2022-08-04T18:12:36;7.80;;;2.42;;
73557;SDS011;61829;53.286;10.434;2022-08-04T18:15:04;5.38;;;2.60;;
73557;SDS011;61829;53.286;10.434;2022-08-04T18:17:33;9.80;;;2.42;;
73557;SDS011;61829;53.286;10.434;2022-08-04T18:20:07;6.43;;;2.40;;
73557;SDS011;61829;53.286;10.434;2022-08-04T18:22:35;4.78;;;2.30;;
73557;SDS011;61829;53.286;10.434;2022-08-04T18:25:02;7.88;;;2.35;;
73557;SDS011;61829;53.286;10.434;2022-08-04T18:27:29;7.65;;;2.45;;
73557;SDS011;61829;53.286;10.434;2022-08-04T18:29:57;7.75;;;2.33;;
73557;SDS011;61829;53.286;10.434;2022-08-04T18:32:23;4.95;;;2.50;;
73557;SDS011;61829;53.286;10.434;2022-08-04T18:34:51;7.28;;;2.60;;
73557;SDS011;61829;53.286;10.434;2022-08-04T18:37:18;6.28;;;2.50;;
73557;SDS011;61829;53.286;10.434;2022-08-04T18:39:44;7.60;;;2.13;;
73557;SDS011;61829;53.286;10.434;2022-08-04T18:42:11;4.68;;;2.13;;
73557;SDS011;61829;53.286;10.434;2022-08-04T18:44:37;5.22;;;2.30;;
73557;SDS011;61829;53.286;10.434;2022-08-04T18:47:03;5.97;;;2.13;;
73557;SDS011;61829;53.286;10.434;2022-08-04T18:49:30;6.50;;;2.42;;
73557;SDS011;61829;53.286;10.434;2022-08-04T18:54:22;7.80;;;2.78;;
73557;SDS011;61829;53.286;10.434;2022-08-04T18:56:50;7.10;;;2.55;;
73557;SDS011;61829;53.286;10.434;2022-08-04T18:59:17;6.57;;;2.53;;
73557;SDS011;61829;53.286;10.434;2022-08-04T19:04:10;11.63;;;2.50;;
73557;SDS011;61829;53.286;10.434;2022-08-04T19:06:36;10.60;;;2.63;;
73557;SDS011;61829;53.286;10.434;2022-08-04T19:09:04;5.63;;;2.20;;
73557;SDS011;61829;53.286;10.434;2022-08-04T19:11:30;5.50;;;2.30;;
73557;SDS011;61829;53.286;10.434;2022-08-04T19:14:01;7.38;;;2.53;;
73557;SDS011;61829;53.286;10.434;2022-08-04T19:16:28;8.23;;;2.90;;
73557;SDS011;61829;53.286;10.434;2022-08-04T19:18:56;7.68;;;2.95;;
73557;SDS011;61829;53.286;10.434;2022-08-04T19:21:25;8.20;;;2.50;;
73557;SDS011;61829;53.286;10.434;2022-08-04T19:23:54;8.98;;;2.97;;
73557;SDS011;61829;53.286;10.434;2022-08-04T19:26:20;7.88;;;2.60;;
73557;SDS011;61829;53.286;10.434;2022-08-04T19:28:50;6.78;;;2.75;;
73557;SDS011;61829;53.286;10.434;2022-08-04T19:31:17;8.80;;;2.85;;
73557;SDS011;61829;53.286;10.434;2022-08-04T19:33:44;5.97;;;2.30;;
73557;SDS011;61829;53.286;10.434;2022-08-04T19:36:10;7.78;;;2.70;;
73557;SDS011;61829;53.286;10.434;2022-08-04T19:38:37;9.18;;;2.70;;
73557;SDS011;61829;53.286;10.434;2022-08-04T19:41:04;6.50;;;2.40;;
73557;SDS011;61829;53.286;10.434;2022-08-04T19:43:31;10.57;;;3.13;;
73557;SDS011;61829;53.286;10.434;2022-08-04T19:45:57;7.93;;;2.97;;
73557;SDS011;61829;53.286;10.434;2022-08-04T19:48:24;9.95;;;2.55;;
73557;SDS011;61829;53.286;10.434;2022-08-04T19:50:52;12.15;;;3.05;;
73557;SDS011;61829;53.286;10.434;2022-08-04T19:53:18;10.38;;;2.58;;
73557;SDS011;61829;53.286;10.434;2022-08-04T19:58:11;5.93;;;2.60;;
73557;SDS011;61829;53.286;10.434;2022-08-04T20:00:38;6.60;;;2.47;;
73557;SDS011;61829;53.286;10.434;2022-08-04T20:03:05;7.88;;;2.80;;
73557;SDS011;61829;53.286;10.434;2022-08-04T20:05:38;10.60;;;3.30;;
73557;SDS011;61829;53.286;10.434;2022-08-04T20:08:05;7.57;;;2.80;;
73557;SDS011;61829;53.286;10.434;2022-08-04T20:10:31;7.82;;;3.10;;
73557;SDS011;61829;53.286;10.434;2022-08-04T20:12:57;6.80;;;2.83;;
73557;SDS011;61829;53.286;10.434;2022-08-04T20:15:23;6.38;;;3.08;;
73557;SDS011;61829;53.286;10.434;2022-08-04T20:17:49;9.77;;;2.90;;
73557;SDS011;61829;53.286;10.434;2022-08-04T20:20:15;8.45;;;3.28;;
73557;SDS011;61829;53.286;10.434;2022-08-04T20:22:41;6.63;;;2.95;;
73557;SDS011;61829;53.286;10.434;2022-08-04T20:25:07;8.40;;;2.97;;
73557;SDS011;61829;53.286;10.434;2022-08-04T20:27:35;8.57;;;3.10;;
73557;SDS011;61829;53.286;10.434;2022-08-04T20:32:28;8.70;;;3.05;;
73557;SDS011;61829;53.286;10.434;2022-08-04T20:34:55;5.97;;;3.20;;
73557;SDS011;61829;53.286;10.434;2022-08-04T20:37:22;8.40;;;3.15;;
73557;SDS011;61829;53.286;10.434;2022-08-04T20:39:53;8.93;;;3.00;;
73557;SDS011;61829;53.286;10.434;2022-08-04T20:42:20;8.13;;;2.80;;
73557;SDS011;61829;53.286;10.434;2022-08-04T20:44:47;5.38;;;3.17;;
73557;SDS011;61829;53.286;10.434;2022-08-04T20:47:13;8.45;;;3.25;;
73557;SDS011;61829;53.286;10.434;2022-08-04T20:49:39;7.25;;;2.80;;
73557;SDS011;61829;53.286;10.434;2022-08-04T20:52:05;8.32;;;3.58;;
73557;SDS011;61829;53.286;10.434;2022-08-04T20:54:32;5.57;;;3.13;;
73557;SDS011;61829;53.286;10.434;2022-08-04T20:56:58;7.22;;;3.00;;
73557;SDS011;61829;53.286;10.434;2022-08-04T20:59:24;8.43;;;3.17;;
73557;SDS011;61829;53.286;10.434;2022-08-04T21:01:50;6.55;;;2.92;;